sensor_id;sensor_type;location;lat;lon;timestamp;pressure;altitude;pressure_sealevel;temperature;humidity
70133;BME280;57495;49.922;7.966;2023-11-21T00:01:50;99155.44;;;8.83;100.00
70133;BME280;57495;49.922;7.966;2023-11-21T00:03:52;99161.13;;;8.88;100.00
70133;BME280;57495;49.922;7.966;2023-11-21T00:05:54;99161.13;;;8.88;100.00
70133;BME280;57495;49.922;7.966;2023-11-21T00:07:56;99158.09;;;8.83;100.00
70133;BME280;57495;49.922;7.966;2023-11-21T00:09:57;99163.94;;;8.86;100.00
70133;BME280;57495;49.922;7.966;2023-11-21T00:11:58;99155.78;;;8.88;100.00
70133;BME280;57495;49.922;7.966;2023-11-21T00:14:01;99160.13;;;8.89;100.00
70133;BME280;57495;49.922;7.966;2023-11-21T00:16:04;99158.00;;;8.75;100.00
70133;BME280;57495;49.922;7.966;2023-11-21T00:18:06;99162.34;;;8.76;100.00
70133;BME280;57495;49.922;7.966;2023-11-21T00:20:08;99156.03;;;8.77;100.00
70133;BME280;57495;49.922;7.966;2023-11-21T00:22:08;99156.25;;;8.65;100.00
70133;BME280;57495;49.922;7.966;2023-11-21T00:24:10;99150.91;;;8.65;100.00
70133;BME280;57495;49.922;7.966;2023-11-21T00:26:13;99160.13;;;8.71;100.00
70133;BME280;57495;49.922;7.966;2023-11-21T00:28:15;99158.53;;;8.78;100.00
70133;BME280;57495;49.922;7.966;2023-11-21T00:30:18;99159.91;;;8.64;100.00
70133;BME280;57495;49.922;7.966;2023-11-21T00:32:22;99163.47;;;8.73;100.00
70133;BME280;57495;49.922;7.966;2023-11-21T00:34:23;99167.31;;;8.70;100.00
70133;BME280;57495;49.922;7.966;2023-11-21T00:36:24;99170.78;;;8.71;100.00
70133;BME280;57495;49.922;7.966;2023-11-21T00:38:26;99169.66;;;8.74;100.00
70133;BME280;57495;49.922;7.966;2023-11-21T00:40:27;99169.13;;;8.70;100.00
70133;BME280;57495;49.922;7.966;2023-11-21T00:42:29;99164.00;;;8.77;100.00
70133;BME280;57495;49.922;7.966;2023-11-21T00:44:32;99166.91;;;8.65;100.00
70133;BME280;57495;49.922;7.966;2023-11-21T00:46:35;99160.75;;;8.65;100.00
70133;BME280;57495;49.922;7.966;2023-11-21T00:48:37;99167.31;;;8.70;100.00
70133;BME280;57495;49.922;7.966;2023-11-21T00:50:38;99165.94;;;8.66;100.00
70133;BME280;57495;49.922;7.966;2023-11-21T00:52:40;99166.28;;;8.71;100.00
70133;BME280;57495;49.922;7.966;2023-11-21T00:54:42;99162.94;;;8.69;100.00
70133;BME280;57495;49.922;7.966;2023-11-21T00:56:43;99166.28;;;8.71;100.00
70133;BME280;57495;49.922;7.966;2023-11-21T00:58:47;99167.00;;;8.74;100.00
70133;BME280;57495;49.922;7.966;2023-11-21T01:00:50;99167.06;;;8.82;100.00
70133;BME280;57495;49.922;7.966;2023-11-21T01:02:53;99174.69;;;8.77;100.00
70133;BME280;57495;49.922;7.966;2023-11-21T01:04:53;99169.34;;;8.77;100.00
70133;BME280;57495;49.922;7.966;2023-11-21T01:06:55;99172.69;;;8.79;100.00
70133;BME280;57495;49.922;7.966;2023-11-21T01:08:56;99175.22;;;8.80;100.00
70133;BME280;57495;49.922;7.966;2023-11-21T01:10:57;99178.03;;;8.79;100.00
70133;BME280;57495;49.922;7.966;2023-11-21T01:12:58;99183.28;;;8.70;100.00
70133;BME280;57495;49.922;7.966;2023-11-21T01:14:59;99182.81;;;8.75;100.00
70133;BME280;57495;49.922;7.966;2023-11-21T01:17:01;99181.38;;;8.81;100.00
70133;BME280;57495;49.922;7.966;2023-11-21T01:19:06;99180.78;;;8.87;100.00
70133;BME280;57495;49.922;7.966;2023-11-21T01:21:07;99184.97;;;8.89;100.00
70133;BME280;57495;49.922;7.966;2023-11-21T01:23:09;99180.16;;;8.93;100.00
70133;BME280;57495;49.922;7.966;2023-11-21T01:25:10;99182.69;;;8.95;100.00
70133;BME280;57495;49.922;7.966;2023-11-21T01:27:14;99189.84;;;8.94;100.00
70133;BME280;57495;49.922;7.966;2023-11-21T01:29:16;99185.19;;;8.96;100.00
70133;BME280;57495;49.922;7.966;2023-11-21T01:31:17;99176.19;;;8.97;100.00
70133;BME280;57495;49.922;7.966;2023-11-21T01:33:18;99187.53;;;8.99;100.00
70133;BME280;57495;49.922;7.966;2023-11-21T01:35:21;99193.59;;;9.01;100.00
70133;BME280;57495;49.922;7.966;2023-11-21T01:37:22;99192.03;;;8.99;100.00
70133;BME280;57495;49.922;7.966;2023-11-21T01:39:22;99195.53;;;8.99;100.00
70133;BME280;57495;49.922;7.966;2023-11-21T01:41:25;99202.56;;;9.00;100.00
70133;BME280;57495;49.922;7.966;2023-11-21T01:43:27;99203.38;;;9.01;100.00
70133;BME280;57495;49.922;7.966;2023-11-21T01:45:30;99202.56;;;9.00;100.00
70133;BME280;57495;49.922;7.966;2023-11-21T01:47:33;99205.91;;;9.02;100.00
70133;BME280;57495;49.922;7.966;2023-11-21T01:49:36;99207.91;;;9.00;100.00
70133;BME280;57495;49.922;7.966;2023-11-21T01:51:40;99206.19;;;8.99;100.00
70133;BME280;57495;49.922;7.966;2023-11-21T01:53:43;99206.19;;;8.99;100.00
70133;BME280;57495;49.922;7.966;2023-11-21T01:55:46;99201.88;;;8.98;100.00
70133;BME280;57495;49.922;7.966;2023-11-21T01:57:47;99209.59;;;9.01;100.00
70133;BME280;57495;49.922;7.966;2023-11-21T01:59:49;99207.91;;;9.00;100.00
70133;BME280;57495;49.922;7.966;2023-11-21T02:01:52;99212.25;;;9.01;100.00
70133;BME280;57495;49.922;7.966;2023-11-21T02:03:56;99202.56;;;9.00;100.00
70133;BME280;57495;49.922;7.966;2023-11-21T02:05:58;99205.22;;;9.00;100.00
70133;BME280;57495;49.922;7.966;2023-11-21T02:08:01;99214.91;;;9.01;100.00
70133;BME280;57495;49.922;7.966;2023-11-21T02:10:04;99216.56;;;9.02;100.00
70133;BME280;57495;49.922;7.966;2023-11-21T02:12:05;99217.41;;;9.03;100.00
70133;BME280;57495;49.922;7.966;2023-11-21T02:14:07;99211.94;;;9.04;100.00
70133;BME280;57495;49.922;7.966;2023-11-21T02:16:09;99221.63;;;9.05;100.00
70133;BME280;57495;49.922;7.966;2023-11-21T02:18:12;99216.56;;;9.02;100.00
70133;BME280;57495;49.922;7.966;2023-11-21T02:20:15;99213.75;;;9.04;100.00
70133;BME280;57495;49.922;7.966;2023-11-21T02:22:18;99223.41;;;9.05;100.00
70133;BME280;57495;49.922;7.966;2023-11-21T02:24:22;99223.59;;;9.03;100.00
70133;BME280;57495;49.922;7.966;2023-11-21T02:26:23;99222.75;;;9.03;100.00
70133;BME280;57495;49.922;7.966;2023-11-21T02:28:26;99224.28;;;9.05;100.00
70133;BME280;57495;49.922;7.966;2023-11-21T02:30:28;99226.28;;;9.03;100.00
70133;BME280;57495;49.922;7.966;2023-11-21T02:32:28;99227.53;;;8.99;100.00
70133;BME280;57495;49.922;7.966;2023-11-21T02:34:31;99223.91;;;9.00;100.00
70133;BME280;57495;49.922;7.966;2023-11-21T02:36:33;99218.03;;;8.97;100.00
70133;BME280;57495;49.922;7.966;2023-11-21T02:38:33;99224.50;;;8.94;100.00
70133;BME280;57495;49.922;7.966;2023-11-21T02:40:36;99221.75;;;8.86;100.00
70133;BME280;57495;49.922;7.966;2023-11-21T02:42:37;99226.78;;;8.89;100.00
70133;BME280;57495;49.922;7.966;2023-11-21T02:44:40;99225.97;;;8.88;100.00
70133;BME280;57495;49.922;7.966;2023-11-21T02:46:42;99224.81;;;8.91;100.00
70133;BME280;57495;49.922;7.966;2023-11-21T02:48:43;99222.75;;;8.85;100.00
70133;BME280;57495;49.922;7.966;2023-11-21T02:50:45;99224.41;;;8.86;100.00
70133;BME280;57495;49.922;7.966;2023-11-21T02:52:46;99225.44;;;8.85;100.00
70133;BME280;57495;49.922;7.966;2023-11-21T02:54:48;99233.41;;;8.85;100.00
70133;BME280;57495;49.922;7.966;2023-11-21T02:56:51;99232.34;;;8.78;100.00
70133;BME280;57495;49.922;7.966;2023-11-21T02:58:55;99231.66;;;8.76;100.00
70133;BME280;57495;49.922;7.966;2023-11-21T03:00:55;99233.66;;;8.74;100.00
70133;BME280;57495;49.922;7.966;2023-11-21T03:02:57;99230.97;;;8.74;100.00
70133;BME280;57495;49.922;7.966;2023-11-21T03:04:59;99235.16;;;8.76;100.00
70133;BME280;57495;49.922;7.966;2023-11-21T03:07:00;99244.06;;;8.67;100.00
70133;BME280;57495;49.922;7.966;2023-11-21T03:09:02;99243.22;;;8.66;100.00
70133;BME280;57495;49.922;7.966;2023-11-21T03:11:03;99241.94;;;8.70;100.00
70133;BME280;57495;49.922;7.966;2023-11-21T03:13:07;99235.22;;;8.66;100.00
70133;BME280;57495;49.922;7.966;2023-11-21T03:15:09;99248.38;;;8.68;100.00
70133;BME280;57495;49.922;7.966;2023-11-21T03:17:10;99247.94;;;8.73;100.00
70133;BME280;57495;49.922;7.966;2023-11-21T03:19:11;99243.97;;;8.77;100.00
70133;BME280;57495;49.922;7.966;2023-11-21T03:21:15;99240.75;;;8.83;100.00
70133;BME280;57495;49.922;7.966;2023-11-21T03:23:15;99243.91;;;8.86;100.00
70133;BME280;57495;49.922;7.966;2023-11-21T03:25:17;99243.41;;;8.83;100.00
70133;BME280;57495;49.922;7.966;2023-11-21T03:27:18;99248.88;;;8.81;100.00
70133;BME280;57495;49.922;7.966;2023-11-21T03:29:21;99246.34;;;8.80;100.00
70133;BME280;57495;49.922;7.966;2023-11-21T03:31:23;99242.91;;;8.69;100.00
70133;BME280;57495;49.922;7.966;2023-11-21T03:33:24;99251.22;;;8.66;100.00
70133;BME280;57495;49.922;7.966;2023-11-21T03:35:26;99257.25;;;8.68;100.00
70133;BME280;57495;49.922;7.966;2023-11-21T03:37:28;99256.91;;;8.71;100.00
70133;BME280;57495;49.922;7.966;2023-11-21T03:39:29;99253.00;;;8.76;100.00
70133;BME280;57495;49.922;7.966;2023-11-21T03:41:33;99258.31;;;8.76;100.00
70133;BME280;57495;49.922;7.966;2023-11-21T03:43:35;99267.53;;;8.81;100.00
70133;BME280;57495;49.922;7.966;2023-11-21T03:45:38;99266.38;;;8.84;100.00
70133;BME280;57495;49.922;7.966;2023-11-21T03:47:41;99270.75;;;8.85;100.00
70133;BME280;57495;49.922;7.966;2023-11-21T03:49:43;99264.56;;;8.84;100.00
70133;BME280;57495;49.922;7.966;2023-11-21T03:51:44;99266.00;;;8.79;100.00
70133;BME280;57495;49.922;7.966;2023-11-21T03:53:46;99267.53;;;8.81;100.00
70133;BME280;57495;49.922;7.966;2023-11-21T03:55:47;99275.41;;;8.83;100.00
70133;BME280;57495;49.922;7.966;2023-11-21T03:57:49;99269.06;;;8.84;100.00
70133;BME280;57495;49.922;7.966;2023-11-21T03:59:50;99274.38;;;8.84;100.00
70133;BME280;57495;49.922;7.966;2023-11-21T04:01:55;99270.22;;;8.81;100.00
70133;BME280;57495;49.922;7.966;2023-11-21T04:03:57;99272.72;;;8.83;100.00
70133;BME280;57495;49.922;7.966;2023-11-21T04:05:58;99278.63;;;8.77;100.00
70133;BME280;57495;49.922;7.966;2023-11-21T04:08:01;99275.75;;;8.70;100.00
70133;BME280;57495;49.922;7.966;2023-11-21T04:10:03;99284.97;;;8.76;100.00
70133;BME280;57495;49.922;7.966;2023-11-21T04:12:04;99283.69;;;8.80;100.00
70133;BME280;57495;49.922;7.966;2023-11-21T04:14:06;99285.06;;;8.84;100.00
70133;BME280;57495;49.922;7.966;2023-11-21T04:16:07;99284.06;;;8.85;100.00
70133;BME280;57495;49.922;7.966;2023-11-21T04:18:10;99292.75;;;8.87;100.00
70133;BME280;57495;49.922;7.966;2023-11-21T04:20:12;99279.56;;;8.85;100.00
70133;BME280;57495;49.922;7.966;2023-11-21T04:22:13;99294.41;;;8.88;100.00
70133;BME280;57495;49.922;7.966;2023-11-21T04:24:15;99301.44;;;8.89;100.00
70133;BME280;57495;49.922;7.966;2023-11-21T04:26:16;99302.41;;;8.88;100.00
70133;BME280;57495;49.922;7.966;2023-11-21T04:28:18;99306.91;;;8.87;100.00
70133;BME280;57495;49.922;7.966;2023-11-21T04:30:20;99311.09;;;8.90;100.00
70133;BME280;57495;49.922;7.966;2023-11-21T04:32:21;99306.50;;;8.92;100.00
70133;BME280;57495;49.922;7.966;2023-11-21T04:34:24;99307.47;;;8.91;100.00
70133;BME280;57495;49.922;7.966;2023-11-21T04:36:26;99302.41;;;8.88;100.00
70133;BME280;57495;49.922;7.966;2023-11-21T04:38:27;99316.34;;;8.82;100.00
70133;BME280;57495;49.922;7.966;2023-11-21T04:40:29;99312.19;;;8.79;100.00
70133;BME280;57495;49.922;7.966;2023-11-21T04:42:29;99309.25;;;8.73;100.00
70133;BME280;57495;49.922;7.966;2023-11-21T04:44:31;99310.19;;;8.81;100.00
70133;BME280;57495;49.922;7.966;2023-11-21T04:46:32;99314.38;;;8.84;100.00
70133;BME280;57495;49.922;7.966;2023-11-21T04:48:34;99314.84;;;8.79;100.00
70133;BME280;57495;49.922;7.966;2023-11-21T04:50:37;99319.72;;;8.84;100.00
70133;BME280;57495;49.922;7.966;2023-11-21T04:52:39;99322.22;;;8.85;100.00
70133;BME280;57495;49.922;7.966;2023-11-21T04:54:39;99316.22;;;8.83;100.00
70133;BME280;57495;49.922;7.966;2023-11-21T04:56:41;99333.25;;;8.73;100.00
70133;BME280;57495;49.922;7.966;2023-11-21T04:58:42;99327.63;;;8.76;100.00
70133;BME280;57495;49.922;7.966;2023-11-21T05:00:44;99331.81;;;8.78;100.00
70133;BME280;57495;49.922;7.966;2023-11-21T05:02:44;99341.19;;;8.82;100.00
70133;BME280;57495;49.922;7.966;2023-11-21T05:04:46;99339.38;;;8.83;100.00
70133;BME280;57495;49.922;7.966;2023-11-21T05:06:49;99339.38;;;8.83;100.00
70133;BME280;57495;49.922;7.966;2023-11-21T05:08:51;99344.72;;;8.83;100.00
70133;BME280;57495;49.922;7.966;2023-11-21T05:10:53;99348.34;;;8.82;100.00
70133;BME280;57495;49.922;7.966;2023-11-21T05:12:54;99351.31;;;8.79;100.00
70133;BME280;57495;49.922;7.966;2023-11-21T05:14:56;99357.03;;;8.84;100.00
70133;BME280;57495;49.922;7.966;2023-11-21T05:16:58;99362.81;;;8.79;100.00
70133;BME280;57495;49.922;7.966;2023-11-21T05:19:00;99358.59;;;8.77;100.00
70133;BME280;57495;49.922;7.966;2023-11-21T05:21:01;99362.56;;;8.73;100.00
70133;BME280;57495;49.922;7.966;2023-11-21T05:23:04;99360.72;;;8.73;100.00
70133;BME280;57495;49.922;7.966;2023-11-21T05:25:07;99365.50;;;8.79;100.00
70133;BME280;57495;49.922;7.966;2023-11-21T05:27:09;99364.63;;;8.79;100.00
70133;BME280;57495;49.922;7.966;2023-11-21T05:29:10;99369.13;;;8.78;100.00
70133;BME280;57495;49.922;7.966;2023-11-21T05:31:12;99369.97;;;8.79;100.00
70133;BME280;57495;49.922;7.966;2023-11-21T05:33:12;99377.81;;;8.80;100.00
70133;BME280;57495;49.922;7.966;2023-11-21T05:35:14;99368.84;;;8.81;100.00
70133;BME280;57495;49.922;7.966;2023-11-21T05:37:16;99375.97;;;8.81;100.00
70133;BME280;57495;49.922;7.966;2023-11-21T05:39:20;99383.19;;;8.70;100.00
70133;BME280;57495;49.922;7.966;2023-11-21T05:41:22;99386.63;;;8.53;100.00
70133;BME280;57495;49.922;7.966;2023-11-21T05:43:23;99391.94;;;8.53;100.00
70133;BME280;57495;49.922;7.966;2023-11-21T05:45:25;99398.50;;;8.59;100.00
70133;BME280;57495;49.922;7.966;2023-11-21T05:47:25;99398.38;;;8.60;100.00
70133;BME280;57495;49.922;7.966;2023-11-21T05:49:28;99402.03;;;8.59;100.00
70133;BME280;57495;49.922;7.966;2023-11-21T05:51:30;99400.66;;;8.55;100.00
70133;BME280;57495;49.922;7.966;2023-11-21T05:53:30;99404.56;;;8.51;100.00
70133;BME280;57495;49.922;7.966;2023-11-21T05:55:33;99402.31;;;8.56;100.00
70133;BME280;57495;49.922;7.966;2023-11-21T05:57:35;99411.56;;;8.62;100.00
70133;BME280;57495;49.922;7.966;2023-11-21T05:59:37;99405.94;;;8.65;100.00
70133;BME280;57495;49.922;7.966;2023-11-21T06:01:38;99403.84;;;8.68;100.00
70133;BME280;57495;49.922;7.966;2023-11-21T06:03:40;99411.00;;;8.58;100.00
70133;BME280;57495;49.922;7.966;2023-11-21T06:05:41;99408.09;;;8.51;100.00
70133;BME280;57495;49.922;7.966;2023-11-21T06:07:43;99408.66;;;8.45;100.00
70133;BME280;57495;49.922;7.966;2023-11-21T06:09:45;99410.31;;;8.56;100.00
70133;BME280;57495;49.922;7.966;2023-11-21T06:11:48;99422.50;;;8.59;100.00
70133;BME280;57495;49.922;7.966;2023-11-21T06:13:50;99422.25;;;8.52;100.00
70133;BME280;57495;49.922;7.966;2023-11-21T06:15:53;99425.03;;;8.60;100.00
70133;BME280;57495;49.922;7.966;2023-11-21T06:17:55;99432.19;;;8.60;100.00
70133;BME280;57495;49.922;7.966;2023-11-21T06:19:57;99438.78;;;8.56;100.00
70133;BME280;57495;49.922;7.966;2023-11-21T06:21:58;99436.53;;;8.61;100.00
70133;BME280;57495;49.922;7.966;2023-11-21T06:24:02;99443.72;;;8.50;100.00
70133;BME280;57495;49.922;7.966;2023-11-21T06:26:03;99444.41;;;8.52;100.00
70133;BME280;57495;49.922;7.966;2023-11-21T06:28:07;99442.84;;;8.60;100.00
70133;BME280;57495;49.922;7.966;2023-11-21T06:30:09;99451.97;;;8.47;100.00
70133;BME280;57495;49.922;7.966;2023-11-21T06:32:11;99454.38;;;8.41;100.00
70133;BME280;57495;49.922;7.966;2023-11-21T06:34:13;99447.22;;;8.51;100.00
70133;BME280;57495;49.922;7.966;2023-11-21T06:36:14;99447.91;;;8.53;100.00
70133;BME280;57495;49.922;7.966;2023-11-21T06:38:16;99453.38;;;8.61;100.00
70133;BME280;57495;49.922;7.966;2023-11-21T06:40:18;99451.13;;;8.57;100.00
70133;BME280;57495;49.922;7.966;2023-11-21T06:42:19;99463.75;;;8.55;100.00
70133;BME280;57495;49.922;7.966;2023-11-21T06:44:22;99466.97;;;8.58;100.00
70133;BME280;57495;49.922;7.966;2023-11-21T06:46:23;99473.31;;;8.57;100.00
70133;BME280;57495;49.922;7.966;2023-11-21T06:48:25;99481.28;;;8.57;100.00
70133;BME280;57495;49.922;7.966;2023-11-21T06:50:26;99482.00;;;8.59;100.00
70133;BME280;57495;49.922;7.966;2023-11-21T06:52:28;99481.41;;;8.65;100.00
70133;BME280;57495;49.922;7.966;2023-11-21T06:54:28;99480.84;;;8.62;100.00
70133;BME280;57495;49.922;7.966;2023-11-21T06:56:29;99489.56;;;8.54;100.00
70133;BME280;57495;49.922;7.966;2023-11-21T06:58:32;99492.34;;;8.62;100.00
70133;BME280;57495;49.922;7.966;2023-11-21T07:00:34;99498.78;;;8.69;100.00
70133;BME280;57495;49.922;7.966;2023-11-21T07:02:35;99502.16;;;8.71;100.00
70133;BME280;57495;49.922;7.966;2023-11-21T07:04:36;99496.53;;;8.75;100.00
70133;BME280;57495;49.922;7.966;2023-11-21T07:06:38;99513.38;;;8.75;100.00
70133;BME280;57495;49.922;7.966;2023-11-21T07:08:39;99508.63;;;8.69;100.00
70133;BME280;57495;49.922;7.966;2023-11-21T07:10:41;99508.72;;;8.77;100.00
70133;BME280;57495;49.922;7.966;2023-11-21T07:12:43;99513.91;;;8.79;100.00
70133;BME280;57495;49.922;7.966;2023-11-21T07:14:44;99508.44;;;8.80;100.00
70133;BME280;57495;49.922;7.966;2023-11-21T07:16:47;99512.94;;;8.80;100.00
70133;BME280;57495;49.922;7.966;2023-11-21T07:18:49;99519.81;;;8.82;100.00
70133;BME280;57495;49.922;7.966;2023-11-21T07:20:50;99518.97;;;8.82;100.00
70133;BME280;57495;49.922;7.966;2023-11-21T07:22:52;99524.34;;;8.72;100.00
70133;BME280;57495;49.922;7.966;2023-11-21T07:24:55;99527.13;;;8.70;100.00
70133;BME280;57495;49.922;7.966;2023-11-21T07:26:57;99532.47;;;8.70;100.00
70133;BME280;57495;49.922;7.966;2023-11-21T07:28:59;99544.78;;;8.71;100.00
70133;BME280;57495;49.922;7.966;2023-11-21T07:31:00;99548.56;;;8.79;100.00
70133;BME280;57495;49.922;7.966;2023-11-21T07:33:03;99542.28;;;8.80;100.00
70133;BME280;57495;49.922;7.966;2023-11-21T07:35:05;99548.72;;;8.77;100.00
70133;BME280;57495;49.922;7.966;2023-11-21T07:37:08;99554.31;;;8.84;100.00
70133;BME280;57495;49.922;7.966;2023-11-21T07:39:10;99548.72;;;8.87;100.00
70133;BME280;57495;49.922;7.966;2023-11-21T07:41:11;99558.38;;;8.88;100.00
70133;BME280;57495;49.922;7.966;2023-11-21T07:43:16;99555.84;;;8.86;100.00
70133;BME280;57495;49.922;7.966;2023-11-21T07:45:19;99554.88;;;8.87;100.00
70133;BME280;57495;49.922;7.966;2023-11-21T07:47:22;99561.03;;;8.88;100.00
70133;BME280;57495;49.922;7.966;2023-11-21T07:49:29;99563.56;;;8.89;100.00
70133;BME280;57495;49.922;7.966;2023-11-21T07:51:29;99566.66;;;8.95;100.00
70133;BME280;57495;49.922;7.966;2023-11-21T07:53:31;99563.84;;;8.96;100.00
70133;BME280;57495;49.922;7.966;2023-11-21T07:55:31;99564.69;;;8.97;100.00
70133;BME280;57495;49.922;7.966;2023-11-21T07:57:33;99577.88;;;8.98;100.00
70133;BME280;57495;49.922;7.966;2023-11-21T07:59:34;99578.56;;;9.00;100.00
70133;BME280;57495;49.922;7.966;2023-11-21T08:01:36;99579.53;;;8.99;100.00
70133;BME280;57495;49.922;7.966;2023-11-21T08:03:37;99583.47;;;9.05;100.00
70133;BME280;57495;49.922;7.966;2023-11-21T08:05:40;99580.97;;;9.03;100.00
70133;BME280;57495;49.922;7.966;2023-11-21T08:07:42;99582.34;;;9.07;100.00
70133;BME280;57495;49.922;7.966;2023-11-21T08:09:43;99591.31;;;9.06;100.00
70133;BME280;57495;49.922;7.966;2023-11-21T08:11:44;99579.00;;;8.96;100.00
70133;BME280;57495;49.922;7.966;2023-11-21T08:13:46;99589.53;;;8.97;100.00
70133;BME280;57495;49.922;7.966;2023-11-21T08:15:47;99590.53;;;8.96;100.00
70133;BME280;57495;49.922;7.966;2023-11-21T08:17:48;99587.72;;;8.88;100.00
70133;BME280;57495;49.922;7.966;2023-11-21T08:19:50;99592.91;;;8.89;100.00
70133;BME280;57495;49.922;7.966;2023-11-21T08:21:53;99592.50;;;8.94;100.00
70133;BME280;57495;49.922;7.966;2023-11-21T08:23:55;99596.41;;;8.90;100.00
70133;BME280;57495;49.922;7.966;2023-11-21T08:25:56;99598.53;;;8.96;100.00
70133;BME280;57495;49.922;7.966;2023-11-21T08:27:58;99604.13;;;8.93;100.00
70133;BME280;57495;49.922;7.966;2023-11-21T08:29:59;99608.78;;;8.91;100.00
70133;BME280;57495;49.922;7.966;2023-11-21T08:32:01;99607.81;;;8.92;100.00
70133;BME280;57495;49.922;7.966;2023-11-21T08:34:03;99610.28;;;8.94;100.00
70133;BME280;57495;49.922;7.966;2023-11-21T08:36:07;99606.38;;;8.88;100.00
70133;BME280;57495;49.922;7.966;2023-11-21T08:38:09;99618.31;;;8.84;100.00
70133;BME280;57495;49.922;7.966;2023-11-21T08:40:12;99612.72;;;8.87;100.00
70133;BME280;57495;49.922;7.966;2023-11-21T08:42:16;99617.47;;;8.93;100.00
70133;BME280;57495;49.922;7.966;2023-11-21T08:44:18;99627.44;;;8.91;100.00
70133;BME280;57495;49.922;7.966;2023-11-21T08:46:19;99627.44;;;8.91;100.00
70133;BME280;57495;49.922;7.966;2023-11-21T08:48:21;99630.09;;;8.91;100.00
70133;BME280;57495;49.922;7.966;2023-11-21T08:50:22;99632.50;;;8.94;100.00
70133;BME280;57495;49.922;7.966;2023-11-21T08:52:24;99632.50;;;8.94;100.00
70133;BME280;57495;49.922;7.966;2023-11-21T08:54:27;99624.50;;;8.94;100.00
70133;BME280;57495;49.922;7.966;2023-11-21T08:56:27;99631.25;;;8.88;100.00
70133;BME280;57495;49.922;7.966;2023-11-21T08:58:29;99627.16;;;8.94;100.00
70133;BME280;57495;49.922;7.966;2023-11-21T09:00:31;99628.00;;;8.95;100.00
70133;BME280;57495;49.922;7.966;2023-11-21T09:02:33;99633.59;;;8.92;100.00
70133;BME280;57495;49.922;7.966;2023-11-21T09:04:35;99629.25;;;9.00;100.00
70133;BME280;57495;49.922;7.966;2023-11-21T09:06:36;99630.09;;;9.01;100.00
70133;BME280;57495;49.922;7.966;2023-11-21T09:08:37;99642.44;;;9.12;100.00
70133;BME280;57495;49.922;7.966;2023-11-21T09:10:41;99637.38;;;9.08;100.00
70133;BME280;57495;49.922;7.966;2023-11-21T09:12:43;99645.78;;;9.14;100.00
70133;BME280;57495;49.922;7.966;2023-11-21T09:14:45;99648.31;;;9.15;100.00
70133;BME280;57495;49.922;7.966;2023-11-21T09:16:47;99645.06;;;9.21;100.00
70133;BME280;57495;49.922;7.966;2023-11-21T09:18:49;99648.88;;;9.19;100.00
70133;BME280;57495;49.922;7.966;2023-11-21T09:20:51;99651.97;;;9.24;100.00
70133;BME280;57495;49.922;7.966;2023-11-21T09:22:52;99658.13;;;9.24;100.00
70133;BME280;57495;49.922;7.966;2023-11-21T09:24:55;99665.69;;;9.29;100.00
70133;BME280;57495;49.922;7.966;2023-11-21T09:26:59;99665.16;;;9.25;100.00
70133;BME280;57495;49.922;7.966;2023-11-21T09:29:01;99664.03;;;9.28;100.00
70133;BME280;57495;49.922;7.966;2023-11-21T09:31:04;99673.56;;;9.31;100.00
70133;BME280;57495;49.922;7.966;2023-11-21T09:33:09;99675.81;;;9.35;100.00
70133;BME280;57495;49.922;7.966;2023-11-21T09:35:11;99673.94;;;9.45;100.00
70133;BME280;57495;49.922;7.966;2023-11-21T09:37:14;99671.09;;;9.57;100.00
70133;BME280;57495;49.922;7.966;2023-11-21T09:39:16;99675.19;;;9.61;100.00
70133;BME280;57495;49.922;7.966;2023-11-21T09:41:21;99680.38;;;9.62;100.00
70133;BME280;57495;49.922;7.966;2023-11-21T09:43:28;99684.13;;;9.70;100.00
70133;BME280;57495;49.922;7.966;2023-11-21T09:45:35;99689.66;;;9.68;100.00
70133;BME280;57495;49.922;7.966;2023-11-21T09:47:38;99686.66;;;9.71;100.00
70133;BME280;57495;49.922;7.966;2023-11-21T09:49:40;99698.31;;;9.80;100.00
70133;BME280;57495;49.922;7.966;2023-11-21T09:51:42;99695.50;;;9.81;100.00
70133;BME280;57495;49.922;7.966;2023-11-21T09:53:46;99693.94;;;9.89;100.00
70133;BME280;57495;49.922;7.966;2023-11-21T09:55:52;99700.78;;;9.91;100.00
70133;BME280;57495;49.922;7.966;2023-11-21T09:57:56;99704.56;;;9.98;100.00
70133;BME280;57495;49.922;7.966;2023-11-21T10:00:00;99702.59;;;10.00;100.00
70133;BME280;57495;49.922;7.966;2023-11-21T10:02:04;99698.47;;;10.06;100.00
70133;BME280;57495;49.922;7.966;2023-11-21T10:04:11;99713.53;;;10.07;100.00
70133;BME280;57495;49.922;7.966;2023-11-21T10:06:13;99706.69;;;10.22;100.00
70133;BME280;57495;49.922;7.966;2023-11-21T10:08:15;99708.69;;;10.20;100.00
70133;BME280;57495;49.922;7.966;2023-11-21T10:10:18;99709.78;;;10.28;100.00
70133;BME280;57495;49.922;7.966;2023-11-21T10:12:20;99710.91;;;10.35;100.00
70133;BME280;57495;49.922;7.966;2023-11-21T10:14:24;99709.22;;;10.34;100.00
70133;BME280;57495;49.922;7.966;2023-11-21T10:16:30;99712.69;;;10.62;100.00
70133;BME280;57495;49.922;7.966;2023-11-21T10:18:33;99722.19;;;10.74;100.00
70133;BME280;57495;49.922;7.966;2023-11-21T10:20:35;99718.69;;;10.74;100.00
70133;BME280;57495;49.922;7.966;2023-11-21T10:22:38;99727.00;;;10.71;100.00
70133;BME280;57495;49.922;7.966;2023-11-21T10:24:41;99733.44;;;10.78;100.00
70133;BME280;57495;49.922;7.966;2023-11-21T10:26:43;99728.25;;;10.94;100.00
70133;BME280;57495;49.922;7.966;2023-11-21T10:28:55;99729.38;;;10.92;100.00
70133;BME280;57495;49.922;7.966;2023-11-21T10:30:56;99731.06;;;10.93;100.00
70133;BME280;57495;49.922;7.966;2023-11-21T10:33:00;99733.06;;;10.91;100.00
70133;BME280;57495;49.922;7.966;2023-11-21T10:35:03;99732.75;;;10.94;100.00
70133;BME280;57495;49.922;7.966;2023-11-21T10:37:11;99740.94;;;10.92;100.00
70133;BME280;57495;49.922;7.966;2023-11-21T10:39:14;99733.88;;;10.91;100.00
70133;BME280;57495;49.922;7.966;2023-11-21T10:41:19;99739.41;;;11.08;100.00
70133;BME280;57495;49.922;7.966;2023-11-21T10:43:24;99741.53;;;11.22;100.00
70133;BME280;57495;49.922;7.966;2023-11-21T10:45:26;99738.78;;;11.14;100.00
70133;BME280;57495;49.922;7.966;2023-11-21T10:47:31;99732.50;;;11.23;100.00